Flight Track Log - Related Links

Times and Time Zones

All times are in EDT time to prevent confusion due to time zone crossing. See the N884FT flight status page for this flight to view local times or setup timezone preferences in your user account.

Time Position Orientation Groundspeed Altitude Reporting Facility
EDT Latitude Longitude Course Direction KTS MPH feet Rate Location/Type
Sat 03:20:45 PM 28.1000 -80.6500 90° East 82 94 600  Level Orlando TRACON
Sat 03:20:58 PM 28.1000 -80.6333 90° East 80 92 900 822 Climbing Orlando TRACON
Sat 03:21:58 PM 28.1000 -80.6000 90° East 102 117 1,600 650 Climbing Orlando TRACON
Sat 03:22:58 PM 28.1000 -80.5667 90° East 112 129 2,200 600 Climbing Orlando TRACON
Sat 03:23:58 PM 28.0833 -80.5667 180° South 114 131 2,800 626 Climbing Orlando TRACON
Sat 03:24:53 PM 28.0667 -80.6000 240° Southwest 111 128 3,400 595 Climbing Orlando TRACON
Sat 03:25:59 PM 28.0833 -80.6333 300° West 99 114 4,000 286 Climbing Orlando TRACON
Sat 03:26:59 PM 28.0833 -80.6667 270° West 131 151 4,000 50 Level Orlando TRACON
Sat 03:27:59 PM 28.1000 -80.7000 300° West 127 146 4,100  Climbing Orlando TRACON
Sat 03:28:59 PM 28.1000 -80.7500 270° West 144 166 4,000  Descending Orlando TRACON
Sat 03:29:59 PM 28.1167 -80.7833 300° West 135 155 4,100  Climbing Orlando TRACON
Sat 03:30:59 PM 28.1000 -80.8333 249° West 141 162 4,000 -50 Descending Orlando TRACON
Sat 03:32:00 PM 28.1000 -80.8833 270° West 138 159 4,000  Level Orlando TRACON
Sat 03:33:00 PM 28.1000 -80.9167 270° West 139 160 4,000  Level Orlando TRACON
Sat 03:34:00 PM 28.1000 -80.9667 270° West 138 159 4,000  Level Orlando TRACON
Sat 03:34:55 PM 28.1000 -81.0000 270° West 138 159 4,000  Level Orlando TRACON
Sat 03:36:01 PM 28.0833 -81.0500 249° West 142 163 4,000 48 Level Orlando TRACON
Sat 03:37:01 PM 28.0833 -81.1000 270° West 142 163 4,100 300 Climbing Orlando TRACON
Sat 03:38:01 PM 28.1000 -81.1333 300° West 129 148 4,600 500 Climbing Orlando TRACON
Sat 03:39:01 PM 28.1000 -81.1833 270° West 131 151 5,100 200 Climbing Orlando TRACON
Sat 03:40:01 PM 28.1000 -81.2167 270° West 147 169 5,000 -50 Descending Orlando TRACON
Sat 03:41:01 PM 28.0833 -81.2667 249° West 146 168 5,000  Level Orlando TRACON
Sat 03:42:01 PM 28.0667 -81.3000 240° Southwest 145 167 5,000  Level Orlando TRACON
Sat 03:43:02 PM 28.0667 -81.3500 270° West 141 162 5,000  Level Orlando TRACON
Sat 03:44:02 PM 28.0667 -81.4000 270° West 143 165 5,000  Level Orlando TRACON
Sat 03:45:02 PM 28.0667 -81.4333 270° West 142 163 5,000  Level Orlando TRACON
Sat 03:46:02 PM 28.0667 -81.4833 270° West 144 166 5,000 297 Level Orlando TRACON
Sat 03:48:04 PM 28.0500 -81.5667 257° West 135 155 5,900 321 Climbing Tampa TRACON
Sat 03:49:09 PM 28.0333 -81.6167 249° West 144 166 6,000 48 Climbing Tampa TRACON
Sat 03:50:09 PM 28.0333 -81.6667 270° West 145 167 6,000  Level Tampa TRACON
Sat 03:51:09 PM 28.0167 -81.7167 249° West 139 160 6,000  Level Tampa TRACON
Sat 03:52:09 PM 28.0167 -81.7500 270° West 141 162 6,000  Level Tampa TRACON
Sat 03:53:09 PM 28.0167 -81.8000 270° West 140 161 6,000  Level Tampa TRACON
Sat 03:54:04 PM 28.0167 -81.8333 270° West 140 161 6,000  Level Tampa TRACON
Sat 03:55:04 PM 28.0000 -81.8833 249° West 142 163 6,000  Level Tampa TRACON
Sat 03:56:04 PM 28.0000 -81.9167 270° West 141 162 6,000  Level Tampa TRACON
Sat 03:57:04 PM 28.0000 -81.9667 270° West 141 162 6,000 -200 Level Tampa TRACON
Sat 03:58:04 PM 27.9833 -82.0167 249° West 152 175 5,600 -400 Descending Tampa TRACON
Sat 03:59:04 PM 27.9833 -82.0667 270° West 160 184 5,200 -450 Descending Tampa TRACON
Sat 04:00:04 PM 27.9833 -82.1167 270° West 159 183 4,700 -500 Descending Tampa TRACON
Sat 04:01:04 PM 27.9667 -82.1667 249° West 163 188 4,200 -400 Descending Tampa TRACON
Sat 04:02:04 PM 27.9667 -82.2167 270° West 163 188 3,900 -100 Descending Tampa TRACON
Sat 04:03:04 PM 27.9667 -82.2667 270° West 146 168 4,000 50 Climbing Tampa TRACON
Sat 04:04:04 PM 27.9667 -82.3000 270° West 152 175 4,000  Level Tampa TRACON
Sat 04:05:04 PM 27.9667 -82.3500 270° West 151 174 4,000  Level Tampa TRACON
Sat 04:06:04 PM 27.9667 -82.4000 270° West 146 168 4,000  Level Tampa TRACON
Sat 04:07:04 PM 27.9667 -82.4500 270° West 144 166 4,000  Level Tampa TRACON
Sat 04:08:04 PM 27.9667 -82.5000 270° West 147 169 4,000  Level Tampa TRACON
Sat 04:09:04 PM 27.9667 -82.5333 270° West 148 170 4,000  Level Tampa TRACON
Sat 04:10:05 PM 27.9667 -82.5833 270° West 145 167 4,000  Level Tampa TRACON
Sat 04:11:05 PM 27.9667 -82.6333 270° West 147 169 4,000  Level Tampa TRACON
Sat 04:12:05 PM 27.9667 -82.6833 270° West 145 167 4,000 -100 Level Tampa TRACON
Sat 04:13:05 PM 27.9500 -82.7167 240° Southwest 150 173 3,800 -350 Descending Tampa TRACON
Sat 04:14:05 PM 27.9167 -82.7500 221° Southwest 154 177 3,300 -500 Descending Tampa TRACON
Sat 04:15:05 PM 27.8833 -82.7500 180° South 152 175 2,800 -350 Descending Tampa TRACON
Sat 04:16:05 PM 27.8500 -82.7500 180° South 128 147 2,600 -300 Descending Tampa TRACON
Sat 04:17:05 PM 27.8333 -82.7167 119° Southeast 100 115 2,200 -600 Descending Tampa TRACON
Sat 04:18:05 PM 27.8500 -82.6833 61° Northeast 100 115 1,400 -750 Descending Tampa TRACON
Sat 04:19:05 PM 27.8667 -82.6833 360° North 93 107 700 -182 Descending Tampa TRACON
Sat 04:21:23 PM 27.9167 -82.6833 360° North 86 99 800 200 Climbing Tampa TRACON
Sat 04:22:05 PM 27.9333 -82.7000 319° Northwest 90 104 1,300 714 Climbing Tampa TRACON

Login

Don't have an account? Register now (free) for customized features, flight alerts, and more!